createdAt,value
2022-12-06T00:00:36.475Z,98.44
2022-12-06T00:05:41.865Z,98.86
2022-12-06T00:10:47.695Z,99.04
2022-12-06T00:15:49.401Z,99.89
2022-12-06T00:20:51.112Z,99.63
2022-12-06T00:25:52.862Z,98.84
2022-12-06T00:31:01.752Z,98.88
2022-12-06T00:36:07.295Z,98.77
2022-12-06T00:41:12.539Z,98.75
2022-12-06T00:46:17.503Z,98.16
2022-12-06T00:51:20.888Z,98.30
2022-12-06T00:56:22.756Z,97.79
2022-12-06T01:01:27.456Z,98.96
2022-12-06T01:06:31.750Z,98.86
2022-12-06T01:11:33.644Z,99.64
2022-12-06T01:16:35.633Z,99.75
2022-12-06T01:21:37.490Z,99.18
2022-12-06T01:26:39.179Z,100.00
2022-12-06T01:31:40.888Z,100.00
2022-12-06T01:36:43.443Z,100.00
2022-12-06T01:41:45.092Z,100.00
2022-12-06T01:46:46.804Z,100.00
2022-12-06T01:51:54.657Z,100.00
2022-12-06T01:56:57.778Z,100.00
2022-12-06T02:01:59.643Z,100.00
2022-12-06T02:07:01.910Z,100.00
2022-12-06T02:12:06.537Z,100.00
2022-12-06T02:17:38.866Z,100.00
2022-12-06T02:22:58.906Z,100.00
2022-12-06T02:28:26.517Z,99.98
2022-12-06T02:33:44.207Z,98.97
2022-12-06T02:38:57.012Z,99.93
2022-12-06T02:44:04.569Z,99.85
2022-12-06T02:49:08.449Z,99.44
2022-12-06T02:54:11.788Z,99.49
2022-12-06T02:59:13.645Z,100.00
2022-12-06T03:04:33.788Z,100.00
2022-12-06T03:09:51.400Z,99.84
2022-12-06T03:15:34.195Z,99.62
2022-12-06T03:20:47.506Z,99.51
2022-12-06T03:25:51.448Z,100.00
2022-12-06T03:30:57.629Z,99.16
2022-12-06T03:36:00.121Z,98.97
2022-12-06T03:41:06.098Z,100.00
2022-12-06T03:46:19.181Z,98.82
2022-12-06T03:51:26.486Z,99.39
2022-12-06T03:56:28.916Z,99.83
2022-12-06T04:01:30.651Z,99.16
2022-12-06T04:06:32.888Z,98.50
2022-12-06T04:11:34.545Z,98.60
2022-12-06T04:16:54.862Z,98.68
2022-12-06T04:22:15.195Z,97.80
2022-12-06T04:27:35.612Z,96.83
2022-12-06T04:32:55.867Z,97.01
2022-12-06T04:38:17.032Z,97.31
2022-12-06T04:43:37.187Z,97.41
2022-12-06T04:48:39.187Z,97.20
2022-12-06T04:53:40.870Z,97.87
2022-12-06T04:58:43.202Z,98.16
2022-12-06T05:03:44.904Z,98.19
2022-12-06T05:08:46.670Z,99.37
2022-12-06T05:13:48.341Z,100.00
2022-12-06T05:18:50.026Z,99.87
2022-12-06T05:23:55.476Z,100.00
2022-12-06T05:28:58.228Z,100.00
2022-12-06T05:33:59.969Z,100.00
2022-12-06T05:39:01.628Z,100.00
2022-12-06T05:44:03.333Z,100.00
2022-12-06T05:49:05.015Z,100.00
2022-12-06T05:54:06.806Z,100.00
2022-12-06T05:59:08.507Z,100.00
2022-12-06T06:04:10.317Z,100.00
2022-12-06T06:09:11.992Z,100.00
2022-12-06T06:14:14.955Z,100.00
2022-12-06T06:19:16.646Z,100.00
2022-12-06T06:24:18.335Z,100.00
2022-12-06T06:29:20.039Z,100.00
2022-12-06T06:34:21.767Z,100.00
2022-12-06T06:39:23.442Z,100.00
2022-12-06T06:44:25.197Z,100.00
2022-12-06T06:49:26.877Z,100.00
2022-12-06T06:54:28.592Z,100.00
2022-12-06T06:59:30.430Z,100.00
2022-12-06T07:04:32.072Z,100.00
2022-12-06T07:09:34.683Z,100.00
2022-12-06T07:14:36.452Z,100.00
2022-12-06T07:19:38.200Z,100.00
2022-12-06T07:24:42.817Z,100.00
2022-12-06T07:29:44.595Z,100.00
2022-12-06T07:34:46.261Z,100.00
2022-12-06T07:39:47.930Z,100.00
2022-12-06T07:45:02.827Z,100.00
2022-12-06T07:50:06.489Z,100.00
2022-12-06T07:55:10.095Z,100.00
2022-12-06T08:00:15.216Z,100.00
2022-12-06T08:05:17.016Z,100.00
2022-12-06T08:10:18.864Z,100.00
2022-12-06T08:15:20.540Z,100.00
2022-12-06T08:20:23.538Z,100.00
2022-12-06T08:25:25.371Z,100.00
2022-12-06T08:30:27.277Z,100.00
2022-12-06T08:35:28.962Z,100.00
2022-12-06T08:40:30.632Z,100.00
2022-12-06T08:45:33.593Z,100.00
2022-12-06T08:50:35.298Z,100.00
2022-12-06T08:55:36.990Z,100.00
2022-12-06T09:00:38.706Z,100.00
2022-12-06T09:05:40.363Z,100.00
2022-12-06T09:10:43.572Z,99.61
2022-12-06T09:15:45.279Z,98.60
2022-12-06T09:20:46.996Z,98.37
2022-12-06T09:25:48.763Z,98.04
2022-12-06T09:30:50.459Z,97.10
2022-12-06T09:35:53.416Z,96.59
2022-12-06T09:41:04.113Z,97.63
2022-12-06T09:46:24.769Z,96.51
2022-12-06T09:51:49.797Z,96.74
2022-12-06T09:57:01.060Z,96.54
2022-12-06T10:02:17.715Z,96.65
2022-12-06T10:07:33.259Z,95.95
2022-12-06T10:13:02.584Z,96.23
2022-12-06T10:18:22.324Z,95.83
2022-12-06T10:23:41.522Z,96.22
2022-12-06T10:28:44.511Z,96.72
2022-12-06T10:33:49.151Z,96.63
2022-12-06T10:39:00.022Z,96.79
2022-12-06T10:44:13.534Z,96.56
2022-12-06T10:49:36.729Z,96.62
2022-12-06T10:54:50.802Z,96.85
2022-12-06T11:00:19.361Z,96.04
2022-12-06T11:05:32.319Z,95.63
2022-12-06T11:10:35.452Z,94.30
2022-12-06T11:15:42.436Z,93.92
2022-12-06T11:20:56.870Z,93.07
2022-12-06T11:26:23.045Z,93.65
2022-12-06T11:31:46.624Z,92.78
2022-12-06T11:36:56.614Z,92.98
2022-12-06T11:42:04.344Z,92.85
2022-12-06T11:47:07.411Z,92.19
2022-12-06T11:52:14.128Z,93.10
2022-12-06T11:57:26.309Z,92.32
2022-12-06T12:02:31.944Z,92.16
2022-12-06T12:07:35.549Z,93.66
2022-12-06T12:13:05.634Z,94.54
2022-12-06T12:18:23.599Z,94.14
2022-12-06T12:23:30.675Z,95.86
2022-12-06T12:28:34.676Z,94.29
2022-12-06T12:33:36.747Z,95.14
2022-12-06T12:38:50.363Z,95.04
2022-12-06T12:44:37.195Z,94.76
2022-12-06T12:49:29.810Z,93.92
2022-12-06T12:54:34.780Z,94.71
2022-12-06T12:59:40.285Z,94.60
2022-12-06T13:04:45.461Z,95.76
2022-12-06T13:10:02.934Z,96.42
2022-12-06T13:15:34.044Z,97.75
2022-12-06T13:20:37.330Z,97.01
2022-12-06T13:25:39.750Z,97.37
2022-12-06T13:30:42.692Z,97.74
2022-12-06T13:35:54.896Z,97.33
2022-12-06T13:40:58.588Z,98.47
2022-12-06T13:46:09.549Z,99.25
2022-12-06T13:51:32.851Z,100.00
2022-12-06T13:56:34.503Z,100.00
2022-12-06T14:01:52.549Z,100.00
2022-12-06T14:07:05.320Z,100.00
2022-12-06T14:12:09.751Z,100.00
2022-12-06T14:17:26.947Z,100.00
2022-12-06T14:22:37.580Z,100.00
2022-12-06T14:27:45.596Z,99.99
2022-12-06T14:32:56.609Z,100.00
2022-12-06T14:38:02.083Z,100.00
2022-12-06T14:43:16.032Z,99.28
2022-12-06T14:48:18.927Z,98.79
2022-12-06T14:53:37.604Z,99.31
2022-12-06T14:58:45.735Z,98.63
2022-12-06T15:04:01.922Z,97.96
2022-12-06T15:09:12.967Z,98.71
2022-12-06T15:14:23.022Z,98.36
2022-12-06T15:19:24.854Z,98.63
2022-12-06T15:24:28.185Z,99.40
2022-12-06T15:29:29.855Z,99.77
2022-12-06T15:34:35.234Z,98.58
2022-12-06T15:39:37.000Z,98.03
2022-12-06T15:44:38.736Z,99.01
2022-12-06T15:49:41.025Z,100.00
2022-12-06T15:54:42.740Z,100.00
2022-12-06T15:59:44.424Z,100.00
2022-12-06T16:04:48.541Z,100.00
2022-12-06T16:09:50.266Z,100.00
2022-12-06T16:14:51.922Z,100.00
2022-12-06T16:20:12.095Z,100.00
2022-12-06T16:25:13.824Z,100.00
2022-12-06T16:30:15.914Z,100.00
2022-12-06T16:35:17.569Z,100.00
2022-12-06T16:40:21.707Z,100.00
2022-12-06T16:45:23.374Z,100.00
2022-12-06T16:50:26.742Z,100.00
2022-12-06T16:55:28.417Z,100.00
2022-12-06T17:00:30.576Z,100.00
2022-12-06T17:05:32.520Z,100.00
2022-12-06T17:10:34.212Z,100.00
2022-12-06T17:15:35.882Z,100.00
2022-12-06T17:20:37.551Z,100.00
2022-12-06T17:25:39.220Z,100.00
2022-12-06T17:30:40.949Z,100.00
2022-12-06T17:35:42.617Z,100.00
2022-12-06T17:40:44.372Z,100.00
2022-12-06T17:45:46.104Z,100.00
2022-12-06T17:50:47.796Z,100.00
2022-12-06T17:55:49.508Z,100.00
2022-12-06T18:00:51.237Z,100.00
2022-12-06T18:05:52.957Z,100.00
2022-12-06T18:11:00.159Z,100.00
2022-12-06T18:16:01.952Z,100.00
2022-12-06T18:21:10.738Z,100.00
2022-12-06T18:26:14.214Z,100.00
2022-12-06T18:31:16.187Z,100.00
2022-12-06T18:36:19.612Z,100.00
2022-12-06T18:41:22.626Z,100.00
2022-12-06T18:46:25.410Z,100.00
2022-12-06T18:51:30.235Z,100.00
2022-12-06T18:56:33.720Z,100.00
2022-12-06T19:01:37.609Z,100.00
2022-12-06T19:06:39.444Z,100.00
2022-12-06T19:11:43.815Z,100.00
2022-12-06T19:16:48.508Z,100.00
2022-12-06T19:21:52.389Z,100.00
2022-12-06T19:26:58.078Z,100.00
2022-12-06T19:31:59.773Z,100.00
2022-12-06T19:37:01.546Z,100.00
2022-12-06T19:42:21.754Z,100.00
2022-12-06T19:47:23.474Z,100.00
2022-12-06T19:52:29.403Z,100.00
2022-12-06T19:57:32.678Z,100.00
2022-12-06T20:02:34.895Z,100.00
2022-12-06T20:07:37.015Z,100.00
2022-12-06T20:12:38.752Z,100.00
2022-12-06T20:17:40.927Z,100.00
2022-12-06T20:22:42.904Z,100.00
2022-12-06T20:27:53.620Z,100.00
2022-12-06T20:32:55.459Z,100.00
2022-12-06T20:37:57.446Z,100.00
2022-12-06T20:42:59.157Z,100.00
2022-12-06T20:48:00.868Z,100.00
2022-12-06T20:53:02.697Z,100.00
2022-12-06T20:58:04.357Z,100.00
2022-12-06T21:03:06.121Z,100.00
2022-12-06T21:08:09.573Z,100.00
2022-12-06T21:13:11.298Z,100.00
2022-12-06T21:18:17.366Z,100.00
2022-12-06T21:23:20.714Z,100.00
2022-12-06T21:28:23.313Z,100.00
2022-12-06T21:33:26.110Z,100.00
2022-12-06T21:38:30.159Z,100.00
2022-12-06T21:43:31.830Z,100.00
2022-12-06T21:48:33.958Z,100.00
2022-12-06T21:53:36.791Z,100.00
2022-12-06T21:58:38.533Z,100.00
2022-12-06T22:03:40.612Z,100.00
2022-12-06T22:08:44.395Z,100.00
2022-12-06T22:13:47.213Z,100.00
2022-12-06T22:18:48.963Z,100.00
2022-12-06T22:23:51.540Z,100.00
2022-12-06T22:28:53.206Z,100.00
2022-12-06T22:33:56.919Z,100.00
2022-12-06T22:39:01.353Z,100.00
2022-12-06T22:44:05.306Z,100.00
2022-12-06T22:49:06.987Z,100.00
2022-12-06T22:54:12.816Z,100.00
2022-12-06T22:59:16.625Z,100.00
2022-12-06T23:04:18.319Z,100.00
2022-12-06T23:09:20.088Z,100.00
2022-12-06T23:14:21.808Z,100.00
2022-12-06T23:19:23.719Z,100.00
2022-12-06T23:24:25.414Z,100.00
2022-12-06T23:29:27.107Z,100.00
2022-12-06T23:34:28.817Z,100.00
2022-12-06T23:39:30.489Z,100.00
2022-12-06T23:44:32.242Z,100.00
2022-12-06T23:49:33.975Z,100.00
2022-12-06T23:54:35.708Z,100.00
2022-12-06T23:59:37.402Z,100.00
